Time;durP1;ratioP1;P1;durP2;ratioP2;P2;SDS_P1;SDS_P2;PMS_P1;PMS_P2;Temp;Humidity;BMP_temperature;BMP_pressure;BME280_temperature;BME280_humidity;BME280_pressure;Samples;Min_cycle;Max_cycle;Signal;HPM_P1;HPM_P2
2022/08/22 00:02:18;;;;;;;6.33;3.80;;;23.60;61.10;;;26.39;45.35;101587.88;5055228;28;20217;-62
2022/08/22 00:04:55;;;;;;;6.57;2.73;;;23.60;61.10;;;26.38;45.54;101586.28;5055311;28;20194;-62
2022/08/22 00:07:45;;;;;;;6.03;3.10;;;23.60;62.30;;;26.35;46.26;101582.19;5055151;28;20196;-62
2022/08/22 00:10:23;;;;;;;5.03;2.37;;;23.60;61.60;;;26.34;46.53;101579.78;5055208;28;20217;-62
2022/08/22 00:13:01;;;;;;;7.43;3.13;;;23.60;61.70;;;26.30;46.39;101579.47;5054783;28;20217;-62
2022/08/22 00:15:36;;;;;;;4.13;2.30;;;23.60;61.90;;;26.28;46.49;101570.81;5054984;28;20186;-62
2022/08/22 00:18:17;;;;;;;5.50;2.83;;;23.50;61.90;;;26.30;46.72;101579.47;5054856;28;20190;-62
2022/08/22 00:20:51;;;;;;;5.23;2.47;;;23.50;62.00;;;26.33;46.19;101576.25;5054728;28;20204;-62
2022/08/22 00:23:28;;;;;;;4.53;2.60;;;23.50;62.20;;;26.32;46.29;101582.72;5054859;28;20210;-62
2022/08/22 00:26:02;;;;;;;5.93;2.67;;;23.60;62.30;;;26.36;46.53;101583.84;5054808;28;20201;-62
2022/08/22 00:28:39;;;;;;;4.93;2.87;;;23.60;62.00;;;26.37;46.17;101580.06;5054182;28;20182;-62
2022/08/22 00:31:24;;;;;;;4.50;2.40;;;23.60;61.90;;;26.39;46.55;101582.50;5054584;28;20243;-63
2022/08/22 00:34:01;;;;;;;6.10;2.57;;;23.70;62.00;;;26.40;45.93;101584.94;5066601;28;20194;-63
2022/08/22 00:36:39;;;;;;;5.53;2.73;;;23.60;62.10;;;26.37;45.92;101577.34;5073465;28;20205;-63
2022/08/22 00:39:16;;;;;;;6.27;2.93;;;23.60;61.90;;;26.35;46.65;101587.59;5067286;28;20657;-63
2022/08/22 00:42:36;;;;;;;4.70;3.03;;;23.60;62.10;;;26.26;46.35;101583.75;5054698;28;20216;-63
2022/08/22 00:45:46;;;;;;;6.23;2.77;;;23.60;62.40;;;26.20;47.12;101579.38;5054403;28;20190;-62
2022/08/22 00:48:54;;;;;;;7.23;3.50;;;23.60;62.50;;;26.20;47.01;101582.06;5053753;28;20210;-62
2022/08/22 00:52:12;;;;;;;5.10;2.80;;;23.60;62.50;;;26.13;47.18;101585.00;5067186;28;20201;-62
2022/08/22 00:55:11;;;;;;;10.93;3.70;;;23.50;62.60;;;26.11;47.13;101576.34;5074511;28;20193;-63
2022/08/22 00:58:04;;;;;;;4.50;2.57;;;23.50;62.60;;;26.10;46.67;101571.19;5073858;28;20204;-62
2022/08/22 01:00:40;;;;;;;6.27;2.87;;;23.40;62.70;;;26.11;46.52;101575.53;5073983;28;20181;-59
2022/08/22 01:03:57;;;;;;;7.47;3.57;;;23.40;62.70;;;26.00;47.64;101573.78;5074111;28;20205;-61
2022/08/22 01:06:43;;;;;;;8.80;3.23;;;23.40;63.10;;;25.98;47.03;101575.91;5052182;28;20202;-61
2022/08/22 01:09:30;;;;;;;6.03;3.20;;;23.40;63.20;;;25.97;47.69;101575.09;5058500;28;20547;-62
2022/08/22 01:12:18;;;;;;;10.37;4.37;;;23.40;63.30;;;25.96;47.58;101572.66;5053748;28;20682;-60
2022/08/22 01:14:54;;;;;;;8.57;3.17;;;23.40;63.30;;;25.98;47.66;101571.31;5053926;28;20193;-62
2022/08/22 01:17:53;;;;;;;6.40;3.00;;;23.30;63.20;;;25.95;47.70;101576.44;5069350;28;20544;-63
2022/08/22 01:21:29;;;;;;;5.90;2.57;;;23.30;63.40;;;25.93;47.53;101584.78;5053561;28;20197;-62
2022/08/22 01:25:17;;;;;;;6.27;2.63;;;23.30;63.60;;;25.95;47.79;101576.44;5058912;28;20206;-62
2022/08/22 01:28:22;;;;;;;7.57;2.97;;;23.30;63.60;;;25.97;47.33;101585.06;5053920;28;20196;-62
2022/08/22 01:31:39;;;;;;;5.27;2.67;;;23.30;63.60;;;25.98;47.30;101581.31;5053284;28;20542;-62
2022/08/22 01:35:14;;;;;;;5.93;2.80;;;23.40;63.60;;;25.94;47.72;101581.00;5053572;28;20194;-61
2022/08/22 01:38:33;;;;;;;5.83;2.83;;;23.30;64.10;;;25.91;47.17;101586.91;5066873;28;20209;-62
2022/08/22 01:41:43;;;;;;;6.73;2.57;;;23.30;63.60;;;25.89;48.02;101585.53;5053118;28;20190;-62
2022/08/22 01:44:34;;;;;;;9.90;3.40;;;23.30;63.70;;;25.89;47.54;101588.22;5041974;28;20196;-62
2022/08/22 01:47:10;;;;;;;6.37;2.87;;;23.30;63.70;;;25.89;47.86;101582.81;5052929;28;20204;-62
2022/08/22 01:49:50;;;;;;;5.73;2.80;;;23.20;63.80;;;25.85;47.68;101576.31;5053303;28;20184;-62
2022/08/22 01:52:41;;;;;;;7.27;3.20;;;23.20;64.00;;;25.84;47.81;101580.09;5052889;28;20220;-62
2022/08/22 01:55:20;;;;;;;5.90;3.03;;;23.10;64.80;;;25.84;48.03;101580.09;5053762;28;20190;-61
2022/08/22 01:57:52;;;;;;;6.27;2.93;;;23.10;64.30;;;25.82;47.54;101582.22;5053272;28;20205;-61
2022/08/22 02:00:22;;;;;;;7.23;3.33;;;23.10;64.50;;;25.81;47.82;101586.00;5052981;28;20554;-62
2022/08/22 02:03:24;;;;;;;3.93;2.43;;;23.10;64.40;;;25.72;47.84;101579.44;5053488;28;20209;-61
2022/08/22 02:06:03;;;;;;;5.00;2.40;;;23.10;64.40;;;25.72;48.23;101582.13;5053159;28;20228;-63
2022/08/22 02:08:52;;;;;;;5.97;3.03;;;23.10;64.60;;;25.70;47.83;101584.28;5052899;28;20186;-62
2022/08/22 02:11:41;;;;;;;8.57;3.50;;;23.00;64.60;;;25.65;48.43;101584.22;5052993;28;20174;-62
2022/08/22 02:14:31;;;;;;;6.37;3.33;;;23.00;64.80;;;25.64;48.13;101585.28;5052876;28;20198;-62
2022/08/22 02:17:17;;;;;;;10.17;3.60;;;22.90;64.70;;;25.63;47.82;101581.75;5052888;28;20182;-62
2022/08/22 02:20:00;;;;;;;9.97;3.10;;;23.00;64.80;;;25.64;48.06;101579.88;5052991;28;20673;-62
2022/08/22 02:22:41;;;;;;;6.43;3.33;;;23.00;65.00;;;25.60;47.93;101578.75;5052433;28;20704;-62
2022/08/22 02:25:18;;;;;;;6.53;3.23;;;22.90;64.90;;;25.57;48.61;101576.56;5052628;28;20221;-62
2022/08/22 02:27:56;;;;;;;7.27;3.43;;;22.90;64.80;;;25.53;48.13;101582.47;5052440;28;20296;-62
2022/08/22 02:30:42;;;;;;;6.47;3.30;;;22.90;65.00;;;25.52;48.21;101583.53;5052391;28;20198;-62
2022/08/22 02:33:24;;;;;;;8.10;3.07;;;22.90;65.00;;;25.51;48.63;101565.72;5052974;28;20718;-62
2022/08/22 02:36:01;;;;;;;9.67;3.47;;;22.90;65.00;;;25.52;48.35;101572.75;5068472;28;20202;-61
2022/08/22 02:38:37;;;;;;;7.00;3.70;;;22.90;65.10;;;25.52;48.85;101571.94;5052798;28;20186;-62
2022/08/22 02:41:15;;;;;;;7.80;3.23;;;22.90;65.00;;;25.51;48.87;101581.06;5052528;28;20193;-61
2022/08/22 02:43:53;;;;;;;6.60;3.40;;;22.90;65.10;;;25.48;48.33;101577.00;5052945;28;20280;-62
2022/08/22 02:46:30;;;;;;;7.93;3.60;;;22.90;65.10;;;25.45;48.49;101577.53;5052936;28;20216;-62
2022/08/22 02:49:07;;;;;;;6.63;3.37;;;22.90;65.20;;;25.40;48.42;101582.81;5053131;28;20194;-61
2022/08/22 02:51:52;;;;;;;7.20;3.83;;;22.80;65.30;;;25.37;48.88;101574.41;5055239;28;20213;-62
2022/08/22 02:54:33;;;;;;;8.93;4.00;;;22.80;65.50;;;25.29;48.65;101581.06;5071833;28;20702;-61
2022/08/22 02:57:08;;;;;;;11.17;3.73;;;22.70;65.40;;;25.24;49.32;101581.03;5055930;28;20190;-62
2022/08/22 03:00:14;;;;;;;6.83;3.13;;;22.70;65.60;;;25.12;49.61;101585.72;5070953;28;20197;-61
2022/08/22 03:03:14;;;;;;;9.00;3.47;;;22.60;66.10;;;25.11;49.93;101581.38;5055826;28;20213;-62
2022/08/22 03:05:57;;;;;;;5.80;3.60;;;22.50;66.20;;;25.11;49.72;101581.38;5071281;28;20189;-62
2022/08/22 03:08:31;;;;;;;6.23;3.73;;;22.50;66.40;;;25.15;50.00;101584.41;5056166;28;20685;-63
2022/08/22 03:11:16;;;;;;;12.37;3.50;;;22.50;66.60;;;25.14;49.34;101582.75;5055678;28;20197;-62
2022/08/22 03:13:57;;;;;;;6.67;3.50;;;22.50;66.70;;;25.17;49.77;101580.41;5056238;28;20201;-63
2022/08/22 03:16:35;;;;;;;7.03;3.50;;;22.50;66.50;;;25.18;49.28;101582.00;5056014;28;20194;-61
2022/08/22 03:19:15;;;;;;;6.07;3.27;;;22.50;66.40;;;25.19;49.69;101575.56;5056729;28;20190;-63
2022/08/22 03:21:56;;;;;;;7.20;3.60;;;22.50;66.40;;;25.18;49.56;101578.50;5057443;28;20674;-62
2022/08/22 03:24:32;;;;;;;8.93;3.43;;;22.50;66.40;;;25.17;49.51;101576.88;5061791;28;20190;-63
2022/08/22 03:27:13;;;;;;;7.87;3.37;;;22.50;66.40;;;25.14;49.59;101574.69;5062396;28;20197;-62
2022/08/22 03:30:05;;;;;;;23.97;7.73;;;22.50;66.50;;;25.12;49.46;101580.31;5058782;28;20211;-61
2022/08/22 03:32:54;;;;;;;7.00;3.13;;;22.50;67.10;;;25.06;50.07;101575.91;5055752;28;20209;-61
2022/08/22 03:35:35;;;;;;;6.50;3.10;;;22.40;66.80;;;25.08;49.74;101578.38;5055844;28;20686;-62
2022/08/22 03:38:20;;;;;;;7.10;3.97;;;22.40;66.80;;;25.05;49.96;101577.00;5055812;28;20190;-63
2022/08/22 03:41:48;;;;;;;7.23;3.80;;;22.40;67.00;;;25.00;49.77;101574.22;5055492;28;20202;-62
2022/08/22 03:44:57;;;;;;;6.37;2.90;;;22.40;67.40;;;25.03;50.11;101568.31;4989491;28;20211;-63
2022/08/22 03:47:57;;;;;;;5.90;3.37;;;22.40;67.30;;;25.07;50.25;101569.47;5037231;28;20237;-63
2022/08/22 03:51:11;;;;;;;6.90;3.47;;;22.40;68.10;;;25.08;50.05;101571.09;5054947;28;20299;-63
2022/08/22 03:54:29;;;;;;;5.07;3.10;;;22.50;67.10;;;25.09;49.97;101578.13;5048887;28;20218;-63
2022/08/22 03:57:59;;;;;;;7.43;3.60;;;22.50;66.90;;;25.06;49.72;101581.31;5055059;28;20625;-63
2022/08/22 04:01:18;;;;;;;7.47;3.83;;;22.50;66.80;;;25.05;50.02;101577.00;5032350;28;20201;-63
2022/08/22 04:04:43;;;;;;;8.03;3.67;;;22.60;66.70;;;24.99;49.74;101569.91;5054072;28;20205;-63
2022/08/22 04:07:49;;;;;;;7.13;3.20;;;22.50;66.70;;;24.89;50.45;101588.59;5041752;28;20321;-63
2022/08/22 04:11:06;;;;;;;7.53;3.60;;;22.40;66.90;;;24.82;50.34;101585.28;5035079;28;20273;-63
2022/08/22 04:14:07;;;;;;;8.80;3.93;;;22.40;67.00;;;24.76;50.25;101588.94;5034571;28;20216;-63
2022/08/22 04:17:24;;;;;;;7.70;3.20;;;22.30;67.20;;;24.70;50.67;101585.34;5034631;28;20187;-63
2022/08/22 04:20:28;;;;;;;8.40;3.67;;;22.20;67.60;;;24.70;51.04;101587.22;5034468;28;20190;-63
2022/08/22 04:23:33;;;;;;;9.67;3.50;;;22.20;67.90;;;24.65;50.93;101584.47;5027785;28;20226;-63
2022/08/22 04:26:08;;;;;;;10.10;4.30;;;22.10;67.90;;;24.63;51.03;101589.28;5023046;28;20210;-62
2022/08/22 04:28:46;;;;;;;8.63;4.20;;;22.10;68.20;;;24.61;50.87;101591.41;5034107;28;20178;-63
2022/08/22 04:31:21;;;;;;;6.27;3.63;;;22.10;68.40;;;24.59;51.21;101593.53;5034009;28;20187;-63
2022/08/22 04:33:58;;;;;;;4.80;3.20;;;22.00;68.60;;;24.56;51.15;101588.63;5034408;28;20197;-63
2022/08/22 04:36:36;;;;;;;6.87;3.17;;;22.00;68.80;;;24.55;51.48;101582.44;5060903;28;20476;-62
2022/08/22 04:39:13;;;;;;;13.57;3.87;;;21.90;68.70;;;24.55;51.54;101593.22;5074220;28;20193;-63
2022/08/22 04:41:49;;;;;;;5.77;3.00;;;21.90;69.00;;;24.57;51.40;101592.97;5073454;28;20217;-62
2022/08/22 04:44:26;;;;;;;9.00;3.80;;;21.90;69.10;;;24.59;51.53;101594.34;5073793;28;20205;-61
2022/08/22 04:47:01;;;;;;;7.67;3.37;;;22.00;69.20;;;24.64;51.14;101602.50;5073704;28;20208;-63
2022/08/22 04:49:38;;;;;;;6.20;4.07;;;22.00;69.20;;;24.66;50.80;101604.94;5073701;28;20256;-62
2022/08/22 04:52:19;;;;;;;7.10;4.07;;;22.00;68.90;;;24.65;51.55;101603.31;5073341;28;20653;-62
2022/08/22 04:55:02;;;;;;;7.07;3.80;;;22.00;69.10;;;24.62;51.60;101595.72;5089331;28;20197;-63
2022/08/22 04:57:44;;;;;;;5.90;3.57;;;22.00;69.10;;;24.61;51.16;101599.47;5073849;28;20193;-62
2022/08/22 05:00:15;;;;;;;5.73;3.20;;;22.00;69.20;;;24.64;51.13;101602.50;5073347;28;20679;-62
2022/08/22 05:02:49;;;;;;;9.43;4.10;;;22.00;69.20;;;24.67;51.39;101601.19;5073012;28;20220;-62
2022/08/22 05:05:25;;;;;;;5.00;3.60;;;22.00;69.00;;;24.66;50.68;101599.56;5073273;28;20652;-63
2022/08/22 05:07:57;;;;;;;7.10;3.60;;;22.00;68.80;;;24.63;51.22;101595.47;5068663;28;20689;-60
2022/08/22 05:10:33;;;;;;;8.20;3.80;;;22.00;69.20;;;24.62;51.20;101599.25;5053326;28;20194;-63
2022/08/22 05:13:06;;;;;;;9.83;4.30;;;21.90;69.00;;;24.60;50.96;101603.25;5052901;28;20217;-60
2022/08/22 05:15:37;;;;;;;11.83;4.90;;;21.90;69.10;;;24.57;50.90;101598.34;5052920;28;20182;-62
2022/08/22 05:18:09;;;;;;;7.43;4.80;;;21.90;69.20;;;24.51;51.36;101602.81;5053439;28;20189;-63
2022/08/22 05:20:44;;;;;;;7.23;4.40;;;21.80;69.40;;;24.45;51.22;101603.81;5052644;28;20198;-62
2022/08/22 05:23:20;;;;;;;12.83;5.67;;;21.80;69.60;;;24.47;52.07;101603.56;5053040;28;20220;-62
2022/08/22 05:25:53;;;;;;;6.73;4.00;;;21.80;69.90;;;24.45;51.99;101605.69;5053136;28;20190;-62
2022/08/22 05:28:32;;;;;;;5.43;3.80;;;21.70;70.10;;;24.45;51.97;101609.19;5052108;28;20255;-64
2022/08/22 05:31:04;;;;;;;7.50;3.87;;;21.80;70.20;;;24.53;51.74;101607.97;5052795;28;20182;-63
2022/08/22 05:33:40;;;;;;;10.87;4.07;;;21.80;70.30;;;24.59;51.91;101615.06;5053040;28;20714;-61
2022/08/22 05:36:21;;;;;;;6.33;3.87;;;21.90;70.30;;;24.67;51.95;101609.28;5052785;28;20193;-62
2022/08/22 05:38:55;;;;;;;17.50;14.77;;;21.90;70.80;;;24.75;51.73;101617.75;5052788;28;20194;-62
2022/08/22 05:41:28;;;;;;;14.87;9.80;;;22.00;69.90;;;24.84;50.97;101612.81;5052720;28;20197;-62
2022/08/22 05:43:55;;;;;;;9.27;4.80;;;22.10;69.80;;;24.91;51.00;101612.63;5052650;28;20192;-62
2022/08/22 05:46:36;;;;;;;6.57;3.63;;;22.20;69.50;;;24.94;51.24;101621.00;5052976;28;20198;-64
2022/08/22 05:49:16;;;;;;;9.07;4.00;;;22.20;69.30;;;25.00;51.26;101617.34;5052447;28;20178;-65
2022/08/22 05:51:57;;;;;;;5.83;3.80;;;22.30;69.20;;;25.06;50.25;101621.72;5052079;28;20205;-61
2022/08/22 05:54:32;;;;;;;8.77;5.80;;;22.40;69.00;;;25.11;50.85;101613.72;5052538;28;20185;-59
2022/08/22 05:57:21;;;;;;;8.30;4.30;;;22.40;68.60;;;25.14;50.81;101613.22;5052442;28;20209;-61
2022/08/22 05:59:59;;;;;;;9.23;4.70;;;22.50;68.50;;;25.22;49.86;101614.69;5052800;28;20200;-61
2022/08/22 06:02:47;;;;;;;9.83;6.50;;;22.50;68.10;;;25.23;50.37;101617.13;5052010;28;20205;-63
2022/08/22 06:05:24;;;;;;;13.37;11.93;;;22.60;68.10;;;25.30;49.68;101622.31;5052763;28;20197;-63
2022/08/22 06:08:01;;;;;;;6.00;3.67;;;22.60;67.90;;;25.35;49.96;101625.91;5052335;28;20221;-63
2022/08/22 06:10:41;;;;;;;5.90;3.30;;;22.70;67.90;;;25.42;49.56;101626.53;5051898;28;20503;-60
2022/08/22 06:13:18;;;;;;;6.67;3.90;;;22.70;67.80;;;25.50;49.18;101631.53;5052156;28;20208;-64
2022/08/22 06:16:04;;;;;;;8.90;4.07;;;22.70;67.50;;;25.57;49.04;101627.81;5052379;28;20219;-61
2022/08/22 06:18:34;;;;;;;6.93;3.37;;;22.80;67.40;;;25.66;48.90;101626.28;5052553;28;20272;-63
2022/08/22 06:21:08;;;;;;;12.10;7.40;;;22.80;67.20;;;25.74;49.29;101629.38;5052116;28;20512;-63
2022/08/22 06:23:43;;;;;;;8.23;4.50;;;22.90;67.10;;;25.84;48.76;101634.06;5052645;28;20632;-63
2022/08/22 06:26:12;;;;;;;9.33;3.30;;;23.00;66.80;;;25.94;48.45;101634.16;5054696;28;20202;-62
2022/08/22 06:28:55;;;;;;;9.77;3.93;;;23.10;66.40;;;25.99;48.62;101636.91;5056066;28;20291;-63
2022/08/22 06:31:29;;;;;;;5.27;2.93;;;23.10;65.90;;;26.04;48.45;101639.66;5055526;28;20642;-63
2022/08/22 06:34:04;;;;;;;5.83;3.80;;;23.20;65.90;;;26.08;47.47;101644.28;5055797;28;20193;-63
2022/08/22 06:36:37;;;;;;;9.23;3.70;;;23.20;65.70;;;26.17;48.09;101637.38;5055903;28;20504;-63
2022/08/22 06:39:23;;;;;;;8.33;3.63;;;23.30;65.60;;;26.17;47.00;101636.59;5055756;28;20300;-64
2022/08/22 06:41:58;;;;;;;12.77;5.47;;;23.40;64.80;;;26.20;47.25;101644.16;5055664;28;20296;-63
2022/08/22 06:44:31;;;;;;;6.13;3.10;;;23.40;64.80;;;26.20;47.24;101644.16;5056191;28;20193;-63
2022/08/22 06:47:04;;;;;;;11.70;5.67;;;23.40;64.50;;;26.20;47.13;101644.16;5056055;28;20221;-64
2022/08/22 06:49:36;;;;;;;7.13;4.73;;;23.40;64.50;;;26.24;47.82;101647.19;5055990;28;20272;-63
2022/08/22 06:52:10;;;;;;;7.03;3.30;;;23.40;64.60;;;26.25;47.57;101646.91;5055527;28;20224;-63
2022/08/22 06:54:46;;;;;;;10.50;4.70;;;23.50;64.60;;;26.25;47.53;101643.41;5055765;28;20196;-63
2022/08/22 06:57:30;;;;;;;8.73;3.60;;;23.50;64.50;;;26.22;47.14;101642.03;5055525;28;20197;-64
2022/08/22 07:00:03;;;;;;;5.53;2.93;;;23.50;64.30;;;26.30;47.40;101648.84;5055826;28;20206;-63
2022/08/22 07:02:39;;;;;;;7.73;3.40;;;23.50;64.60;;;26.39;46.86;101648.13;5055385;28;20312;-62
2022/08/22 07:05:15;;;;;;;6.50;3.17;;;23.50;64.60;;;26.52;46.76;101653.13;5055797;28;20193;-64
2022/08/22 07:07:43;;;;;;;6.53;3.33;;;23.60;64.60;;;26.65;47.05;101652.66;5055183;28;20210;-63
2022/08/22 07:10:14;;;;;;;6.50;3.30;;;23.70;64.50;;;26.77;46.48;101658.72;5055728;28;20213;-63
2022/08/22 07:12:46;;;;;;;9.00;3.40;;;23.80;65.20;;;26.86;45.88;101659.09;5054691;28;20217;-63
2022/08/22 07:15:28;;;;;;;7.27;3.30;;;23.90;64.00;;;26.95;45.97;101662.09;5055142;28;20273;-62
2022/08/22 07:18:03;;;;;;;6.50;3.17;;;24.00;63.60;;;27.03;46.18;101664.34;5055258;28;20193;-62
2022/08/22 07:20:35;;;;;;;5.00;3.30;;;24.00;63.30;;;27.12;46.09;101660.88;5054690;28;20192;-63
2022/08/22 07:23:09;;;;;;;8.67;3.40;;;24.10;62.90;;;27.21;45.07;101667.41;5055015;28;20224;-63
2022/08/22 07:25:51;;;;;;;4.73;3.10;;;24.30;62.50;;;27.27;45.36;101658.22;5055185;28;20202;-63
2022/08/22 07:28:37;;;;;;;5.03;3.10;;;24.30;62.30;;;27.35;45.00;101656.94;5055195;28;20225;-63
2022/08/22 07:31:36;;;;;;;7.40;3.70;;;24.40;61.90;;;27.56;44.69;101655.97;5068031;28;20214;-62
2022/08/22 07:34:38;;;;;;;5.87;2.97;;;24.50;61.70;;;28.15;43.86;101653.72;5055443;28;20193;-62
2022/08/22 07:37:14;;;;;;;7.03;3.40;;;24.70;61.80;;;28.92;42.91;101656.19;5054657;28;20654;-63
2022/08/22 07:39:52;;;;;;;7.20;3.23;;;25.00;61.70;;;29.79;40.85;101662.97;5054940;28;20669;-63
2022/08/22 07:42:34;;;;;;;8.47;3.07;;;25.50;60.50;;;30.71;38.99;101665.59;5054330;28;20213;-63
2022/08/22 07:45:10;;;;;;;6.37;2.40;;;26.00;59.00;;;31.75;37.88;101661.22;5055343;28;20201;-62
2022/08/22 07:48:08;;;;;;;4.27;2.60;;;26.70;58.10;;;32.78;35.23;101662.09;5055085;28;20205;-61
2022/08/22 07:50:44;;;;;;;4.87;3.00;;;27.50;55.00;;;33.57;33.58;101664.41;5054615;28;20185;-62
2022/08/22 07:53:25;;;;;;;5.17;3.10;;;28.20;52.70;;;34.24;32.64;101659.88;5055250;28;20551;-61
2022/08/22 07:55:56;;;;;;;7.13;3.97;;;28.80;51.00;;;35.01;31.18;101670.53;5055640;28;20682;-62
2022/08/22 07:58:30;;;;;;;6.07;3.53;;;29.40;49.40;;;35.72;30.70;101675.63;5056171;28;20206;-63
2022/08/22 08:00:58;;;;;;;4.23;2.63;;;29.90;47.90;;;36.41;28.81;101664.66;5055037;28;20224;-63
2022/08/22 08:03:29;;;;;;;5.33;3.17;;;30.40;46.60;;;37.12;27.80;101663.84;5055072;28;20686;-63
2022/08/22 08:06:00;;;;;;;6.63;3.67;;;30.90;45.10;;;37.86;26.68;101663.28;5054450;28;20220;-63
2022/08/22 08:08:36;;;;;;;4.50;2.63;;;31.40;44.00;;;38.54;25.94;101665.41;5054516;28;20678;-63
2022/08/22 08:11:09;;;;;;;5.30;3.03;;;31.90;42.20;;;39.17;24.98;101654.97;5054062;28;20189;-64
2022/08/22 08:13:43;;;;;;;6.15;4.13;;;32.40;41.50;;;39.71;24.42;101661.00;5053668;28;20209;-62
2022/08/22 08:16:18;;;;;;;5.88;3.90;;;32.90;40.50;;;39.88;23.43;101658.78;5054587;28;20281;-62
2022/08/22 08:18:49;;;;;;;6.03;3.65;;;33.40;37.70;;;39.99;23.62;101661.06;5054592;28;20189;-63
2022/08/22 08:21:28;;;;;;;5.95;2.83;;;33.70;36.80;;;40.09;23.34;101657.81;5054565;28;20193;-63
2022/08/22 08:23:59;;;;;;;6.88;3.30;;;34.00;36.50;;;40.34;22.35;101664.84;5054575;28;20200;-63
2022/08/22 08:26:32;;;;;;;5.18;2.90;;;34.20;35.30;;;40.58;22.57;101661.16;5054353;28;20189;-63
2022/08/22 08:29:03;;;;;;;4.93;2.65;;;34.40;35.00;;;40.95;21.80;101652.28;5054279;28;20538;-64
2022/08/22 08:31:36;;;;;;;3.58;2.70;;;34.70;34.90;;;41.22;21.86;101656.84;5054006;28;20282;-63
2022/08/22 08:34:21;;;;;;;5.18;2.80;;;34.90;34.60;;;41.73;21.46;101654.09;5053881;28;20182;-63
2022/08/22 08:36:54;;;;;;;5.82;3.15;;;35.20;34.20;;;41.96;21.16;101641.13;5054114;28;20192;-63
2022/08/22 08:39:31;;;;;;;5.90;3.10;;;35.50;33.00;;;42.06;20.49;101635.00;5053840;28;20551;-64
2022/08/22 08:46:17;;;;;;;6.28;4.50;;;36.00;31.70;;;42.75;19.83;101641.44;5053698;28;20200;-63
2022/08/22 08:49:22;;;;;;;5.53;4.35;;;36.30;31.10;;;43.09;19.02;101637.66;5052367;28;20202;-62
2022/08/22 08:52:24;;;;;;;6.15;3.42;;;36.40;30.60;;;43.03;19.46;101628.09;5052989;28;20219;-62
2022/08/22 08:55:07;;;;;;;3.85;2.72;;;36.60;30.00;;;42.76;19.42;101634.75;5053616;28;20197;-64
2022/08/22 08:58:28;;;;;;;7.47;3.72;;;36.60;29.80;;;42.89;19.55;101628.66;5053083;28;20225;-63
2022/08/22 09:01:42;;;;;;;7.68;5.20;;;36.70;30.00;;;43.34;19.00;101621.44;5068758;28;20189;-61
2022/08/22 09:05:07;;;;;;;6.07;2.78;;;36.80;29.90;;;43.67;18.13;101625.00;5053477;28;20251;-62
2022/08/22 09:08:06;;;;;;;4.97;3.58;;;36.90;29.20;;;44.01;18.21;101633.38;5052960;28;20193;-62
2022/08/22 09:11:18;;;;;;;3.78;2.65;;;37.00;28.90;;;44.16;17.48;101626.81;5052908;28;20209;-62
2022/08/22 09:14:15;;;;;;;5.88;2.95;;;37.30;28.20;;;43.91;17.98;101618.19;5053530;28;20213;-62
2022/08/22 09:17:27;;;;;;;4.15;2.90;;;37.30;27.80;;;43.95;17.83;101618.25;5053511;28;20236;-63
2022/08/22 09:20:29;;;;;;;6.47;3.55;;;37.40;28.20;;;44.30;17.27;101613.06;5052288;28;20244;-62
2022/08/22 09:23:40;;;;;;;4.55;2.90;;;37.50;28.00;;;43.98;17.76;101611.94;5053260;28;20564;-63
2022/08/22 09:26:17;;;;;;;2.80;2.50;;;37.60;27.80;;;43.67;17.99;101607.59;5051140;28;20228;-63
2022/08/22 09:28:56;;;;;;;6.05;3.30;;;37.60;27.90;;;43.81;17.82;101610.56;5053002;28;20286;-64
2022/08/22 09:31:53;;;;;;;8.48;7.65;;;37.70;27.70;;;43.95;17.64;101604.34;5052536;28;20511;-62
2022/08/22 09:34:36;;;;;;;4.00;2.90;;;37.70;26.90;;;43.08;18.10;101597.22;5068485;28;20223;-63
2022/08/22 09:37:20;;;;;;;3.30;3.00;;;37.60;27.40;;;42.90;18.75;101597.00;5052844;28;20197;-61
2022/08/22 09:40:02;;;;;;;5.38;3.38;;;37.30;27.90;;;43.30;18.26;101596.41;5052775;28;20258;-61
2022/08/22 09:42:43;;;;;;;4.68;2.58;;;37.20;27.90;;;43.85;17.95;101596.69;5060360;28;20290;-63
2022/08/22 09:45:44;;;;;;;4.20;3.80;;;37.20;28.30;;;44.27;17.19;101594.38;5055897;28;20194;-64
2022/08/22 09:48:42;;;;;;;4.00;3.08;;;37.40;28.30;;;43.23;18.20;101592.69;5052635;28;20213;-63
2022/08/22 09:51:37;;;;;;;8.80;4.50;;;37.30;27.90;;;42.78;18.15;101590.81;5052033;28;20201;-63
2022/08/22 09:54:24;;;;;;;3.53;3.22;;;37.10;27.90;;;42.14;18.91;101586.94;5052512;28;20205;-62
2022/08/22 09:57:15;;;;;;;3.90;2.42;;;36.80;28.50;;;41.47;19.91;101577.25;5052232;28;20217;-65
2022/08/22 10:00:12;;;;;;;5.88;3.90;;;36.50;29.20;;;41.87;19.75;101576.88;5054107;28;20233;-62
2022/08/22 10:02:55;;;;;;;6.53;2.85;;;36.30;29.00;;;42.64;18.91;101574.75;5056425;28;20220;-63
2022/08/22 10:05:29;;;;;;;5.25;3.72;;;36.30;29.40;;;43.38;18.15;101578.69;5072800;28;20235;-60
2022/08/22 10:08:33;;;;;;;5.75;3.40;;;36.50;29.00;;;44.05;16.84;101584.22;5056819;28;20224;-63
2022/08/22 10:11:23;;;;;;;4.90;3.10;;;36.90;28.30;;;44.49;16.76;101567.59;5056849;28;20209;-61
2022/08/22 10:13:59;;;;;;;5.65;3.50;;;37.30;27.40;;;44.99;16.39;101566.78;5057153;28;20205;-63
2022/08/22 10:16:56;;;;;;;3.05;2.80;;;37.60;27.40;;;45.24;16.40;101573.34;5057491;28;20189;-63
2022/08/22 10:19:31;;;;;;;4.22;2.72;;;37.90;27.10;;;45.13;16.22;101563.28;5056648;28;20197;-62
2022/08/22 10:22:38;;;;;;;4.45;4.00;;;38.20;26.40;;;44.95;15.48;101561.22;5056022;28;20288;-64
2022/08/22 10:25:41;;;;;;;5.50;3.90;;;38.40;25.60;;;44.88;16.24;101554.81;5056483;28;20194;-63
2022/08/22 10:28:30;;;;;;;6.32;3.42;;;38.50;25.60;;;44.90;15.88;101558.81;5033937;28;20284;-63
2022/08/22 10:31:24;;;;;;;3.65;2.22;;;38.50;25.50;;;44.99;16.09;101555.66;5049156;28;20218;-61
2022/08/22 10:34:06;;;;;;;7.03;3.80;;;38.50;25.80;;;45.21;15.56;101562.16;5036307;28;20590;-63
2022/08/22 10:36:47;;;;;;;4.30;3.25;;;38.50;25.40;;;45.15;15.50;101552.59;5036320;28;20190;-62
2022/08/22 10:39:25;;;;;;;5.20;3.22;;;38.60;25.40;;;44.55;15.64;101552.19;5050703;28;20488;-63
2022/08/22 10:42:17;;;;;;;4.07;2.97;;;38.50;25.10;;;43.32;16.90;101552.44;5038852;28;20216;-62
2022/08/22 10:45:21;;;;;;;5.28;2.83;;;38.20;25.00;;;42.11;17.98;101553.63;5055912;28;20671;-63
2022/08/22 10:48:39;;;;;;;6.07;2.58;;;37.70;25.40;;;40.76;19.04;101543.59;5055788;28;20547;-63
2022/08/22 10:51:27;;;;;;;4.80;2.75;;;37.10;26.40;;;40.06;19.82;101548.13;5055266;28;20189;-62
2022/08/22 10:54:27;;;;;;;2.50;2.28;;;36.60;26.80;;;39.20;19.94;101544.81;5056264;28;20189;-64
2022/08/22 10:57:15;;;;;;;4.78;2.75;;;36.00;26.90;;;38.34;20.59;101549.88;5056046;28;20225;-62
2022/08/22 11:00:02;;;;;;;4.47;2.40;;;35.50;26.80;;;37.56;21.52;101546.22;5056218;28;20654;-63
2022/08/22 11:02:46;;;;;;;4.80;2.65;;;34.90;27.20;;;37.25;21.30;101546.59;5055624;28;20214;-63
2022/08/22 11:05:42;;;;;;;5.47;2.63;;;34.50;27.90;;;36.68;21.98;101538.03;5056102;28;20200;-63
2022/08/22 11:08:59;;;;;;;2.90;2.30;;;34.10;28.30;;;36.22;22.45;101535.28;5056156;28;20702;-63
2022/08/22 11:11:50;;;;;;;3.65;2.35;;;33.80;28.90;;;36.06;22.27;101545.16;5055106;28;20498;-64
2022/08/22 11:15:02;;;;;;;4.93;2.97;;;33.30;28.60;;;36.49;21.63;101541.16;5055614;28;20194;-62
2022/08/22 11:18:20;;;;;;;3.42;2.22;;;33.20;28.70;;;36.63;22.27;101538.22;5055605;28;20198;-60
2022/08/22 11:21:13;;;;;;;3.00;2.50;;;33.10;28.90;;;36.66;21.18;101535.59;5063256;28;20653;-64
2022/08/22 11:23:59;;;;;;;4.22;2.65;;;33.00;28.90;;;36.63;22.11;101540.97;5003056;28;20214;-63
2022/08/22 11:26:43;;;;;;;3.70;2.33;;;33.00;29.20;;;36.82;21.35;101533.13;5000015;28;20215;-63
2022/08/22 11:29:38;;;;;;;4.07;2.53;;;33.00;29.30;;;36.58;21.95;101521.94;4995169;28;20226;-61
2022/08/22 11:32:21;;;;;;;3.45;2.30;;;33.00;28.50;;;36.23;21.55;101529.44;4993433;28;20225;-63
2022/08/22 11:34:59;;;;;;;4.20;2.40;;;32.90;28.50;;;35.89;22.47;101527.59;4968817;28;20205;-64
2022/08/22 11:38:00;;;;;;;2.70;1.92;;;32.80;28.80;;;35.22;22.97;101535.47;4983510;28;20658;-63